sensor_id;sensor_type;location;lat;lon;timestamp;P1;durP1;ratioP1;P2;durP2;ratioP2
3278;SDS011;1651;50.940;6.888;2023-04-29T00:01:47;14.13;;;9.47;;
3278;SDS011;1651;50.940;6.888;2023-04-29T00:04:13;12.83;;;8.63;;
3278;SDS011;1651;50.940;6.888;2023-04-29T00:06:39;14.90;;;9.90;;
3278;SDS011;1651;50.940;6.888;2023-04-29T00:09:05;13.90;;;9.33;;
3278;SDS011;1651;50.940;6.888;2023-04-29T00:11:32;14.03;;;10.10;;
3278;SDS011;1651;50.940;6.888;2023-04-29T00:13:58;14.53;;;10.40;;
3278;SDS011;1651;50.940;6.888;2023-04-29T00:16:26;14.77;;;11.20;;
3278;SDS011;1651;50.940;6.888;2023-04-29T00:18:52;18.93;;;11.73;;
3278;SDS011;1651;50.940;6.888;2023-04-29T00:21:19;23.33;;;12.17;;
3278;SDS011;1651;50.940;6.888;2023-04-29T00:23:45;17.00;;;11.03;;
3278;SDS011;1651;50.940;6.888;2023-04-29T00:26:11;18.87;;;11.33;;
3278;SDS011;1651;50.940;6.888;2023-04-29T00:28:38;16.73;;;11.70;;
3278;SDS011;1651;50.940;6.888;2023-04-29T00:31:04;17.20;;;11.43;;
3278;SDS011;1651;50.940;6.888;2023-04-29T00:33:31;20.73;;;12.53;;
3278;SDS011;1651;50.940;6.888;2023-04-29T00:35:57;15.00;;;10.63;;
3278;SDS011;1651;50.940;6.888;2023-04-29T00:38:23;15.00;;;10.33;;
3278;SDS011;1651;50.940;6.888;2023-04-29T00:40:49;15.40;;;10.10;;
3278;SDS011;1651;50.940;6.888;2023-04-29T00:43:15;16.73;;;10.80;;
3278;SDS011;1651;50.940;6.888;2023-04-29T00:45:41;16.57;;;10.30;;
3278;SDS011;1651;50.940;6.888;2023-04-29T00:48:08;16.10;;;10.00;;
3278;SDS011;1651;50.940;6.888;2023-04-29T00:50:34;23.77;;;11.70;;
3278;SDS011;1651;50.940;6.888;2023-04-29T00:53:00;21.50;;;11.93;;
3278;SDS011;1651;50.940;6.888;2023-04-29T00:55:27;16.27;;;10.33;;
3278;SDS011;1651;50.940;6.888;2023-04-29T00:57:54;18.20;;;11.80;;
3278;SDS011;1651;50.940;6.888;2023-04-29T01:00:20;17.23;;;10.57;;
3278;SDS011;1651;50.940;6.888;2023-04-29T01:02:46;17.63;;;12.80;;
3278;SDS011;1651;50.940;6.888;2023-04-29T01:05:13;16.43;;;10.23;;
3278;SDS011;1651;50.940;6.888;2023-04-29T01:07:57;18.53;;;10.60;;
3278;SDS011;1651;50.940;6.888;2023-04-29T01:10:28;13.60;;;9.40;;
3278;SDS011;1651;50.940;6.888;2023-04-29T01:13:05;13.83;;;8.90;;
3278;SDS011;1651;50.940;6.888;2023-04-29T01:15:55;14.27;;;9.50;;
3278;SDS011;1651;50.940;6.888;2023-04-29T01:21:13;14.00;;;10.70;;
3278;SDS011;1651;50.940;6.888;2023-04-29T01:23:39;17.30;;;10.60;;
3278;SDS011;1651;50.940;6.888;2023-04-29T01:26:05;19.93;;;11.80;;
3278;SDS011;1651;50.940;6.888;2023-04-29T01:31:21;19.43;;;12.83;;
3278;SDS011;1651;50.940;6.888;2023-04-29T01:33:54;23.77;;;12.20;;
3278;SDS011;1651;50.940;6.888;2023-04-29T01:39:08;21.17;;;11.87;;
3278;SDS011;1651;50.940;6.888;2023-04-29T01:41:44;18.20;;;11.93;;
3278;SDS011;1651;50.940;6.888;2023-04-29T01:44:19;20.80;;;12.47;;
3278;SDS011;1651;50.940;6.888;2023-04-29T01:46:51;18.97;;;12.70;;
3278;SDS011;1651;50.940;6.888;2023-04-29T01:49:23;20.90;;;14.63;;
3278;SDS011;1651;50.940;6.888;2023-04-29T01:51:49;25.53;;;13.83;;
3278;SDS011;1651;50.940;6.888;2023-04-29T01:54:15;19.43;;;14.57;;
3278;SDS011;1651;50.940;6.888;2023-04-29T01:56:41;31.70;;;16.47;;
3278;SDS011;1651;50.940;6.888;2023-04-29T01:59:07;28.53;;;15.47;;
3278;SDS011;1651;50.940;6.888;2023-04-29T02:01:33;28.20;;;15.43;;
3278;SDS011;1651;50.940;6.888;2023-04-29T02:03:59;34.23;;;19.07;;
3278;SDS011;1651;50.940;6.888;2023-04-29T02:06:25;30.00;;;20.20;;
3278;SDS011;1651;50.940;6.888;2023-04-29T02:08:52;32.33;;;19.20;;
3278;SDS011;1651;50.940;6.888;2023-04-29T02:11:17;34.63;;;20.97;;
3278;SDS011;1651;50.940;6.888;2023-04-29T02:13:43;37.90;;;21.50;;
3278;SDS011;1651;50.940;6.888;2023-04-29T02:16:11;30.50;;;20.70;;
3278;SDS011;1651;50.940;6.888;2023-04-29T02:18:37;36.83;;;22.83;;
3278;SDS011;1651;50.940;6.888;2023-04-29T02:21:04;40.27;;;23.27;;
3278;SDS011;1651;50.940;6.888;2023-04-29T02:23:30;37.77;;;22.50;;
3278;SDS011;1651;50.940;6.888;2023-04-29T02:25:56;37.87;;;23.00;;
3278;SDS011;1651;50.940;6.888;2023-04-29T02:28:23;34.53;;;23.03;;
3278;SDS011;1651;50.940;6.888;2023-04-29T02:30:49;40.03;;;24.93;;
3278;SDS011;1651;50.940;6.888;2023-04-29T02:33:15;41.10;;;24.00;;
3278;SDS011;1651;50.940;6.888;2023-04-29T02:35:42;45.70;;;23.50;;
3278;SDS011;1651;50.940;6.888;2023-04-29T02:38:09;40.33;;;24.87;;
3278;SDS011;1651;50.940;6.888;2023-04-29T02:40:42;43.03;;;26.33;;
3278;SDS011;1651;50.940;6.888;2023-04-29T02:43:08;44.07;;;25.40;;
3278;SDS011;1651;50.940;6.888;2023-04-29T02:45:35;43.83;;;25.90;;
3278;SDS011;1651;50.940;6.888;2023-04-29T02:48:01;50.23;;;26.47;;
3278;SDS011;1651;50.940;6.888;2023-04-29T02:50:27;46.17;;;25.97;;
3278;SDS011;1651;50.940;6.888;2023-04-29T02:52:53;45.03;;;25.37;;
3278;SDS011;1651;50.940;6.888;2023-04-29T02:55:19;40.83;;;25.47;;
3278;SDS011;1651;50.940;6.888;2023-04-29T02:57:46;40.50;;;25.47;;
3278;SDS011;1651;50.940;6.888;2023-04-29T03:00:12;39.07;;;24.37;;
3278;SDS011;1651;50.940;6.888;2023-04-29T03:02:38;43.40;;;26.30;;
3278;SDS011;1651;50.940;6.888;2023-04-29T03:05:05;42.67;;;27.43;;
3278;SDS011;1651;50.940;6.888;2023-04-29T03:07:31;38.10;;;24.90;;
3278;SDS011;1651;50.940;6.888;2023-04-29T03:09:57;43.70;;;26.30;;
3278;SDS011;1651;50.940;6.888;2023-04-29T03:12:23;43.93;;;27.67;;
3278;SDS011;1651;50.940;6.888;2023-04-29T03:14:49;51.07;;;27.80;;
3278;SDS011;1651;50.940;6.888;2023-04-29T03:17:18;46.17;;;27.90;;
3278;SDS011;1651;50.940;6.888;2023-04-29T03:19:44;48.77;;;26.13;;
3278;SDS011;1651;50.940;6.888;2023-04-29T03:37:37;54.33;;;30.43;;
3278;SDS011;1651;50.940;6.888;2023-04-29T03:40:04;70.20;;;35.10;;
3278;SDS011;1651;50.940;6.888;2023-04-29T03:42:31;63.03;;;31.43;;
3278;SDS011;1651;50.940;6.888;2023-04-29T03:44:57;73.23;;;33.10;;
3278;SDS011;1651;50.940;6.888;2023-04-29T03:47:23;69.60;;;31.87;;
3278;SDS011;1651;50.940;6.888;2023-04-29T03:49:50;65.03;;;29.50;;
3278;SDS011;1651;50.940;6.888;2023-04-29T03:52:16;58.90;;;28.13;;
3278;SDS011;1651;50.940;6.888;2023-04-29T03:54:44;58.73;;;29.63;;
3278;SDS011;1651;50.940;6.888;2023-04-29T03:57:10;60.00;;;27.97;;
3278;SDS011;1651;50.940;6.888;2023-04-29T03:59:36;56.83;;;26.43;;
3278;SDS011;1651;50.940;6.888;2023-04-29T04:02:24;66.43;;;25.40;;
3278;SDS011;1651;50.940;6.888;2023-04-29T04:04:53;59.73;;;25.17;;
3278;SDS011;1651;50.940;6.888;2023-04-29T04:07:19;62.27;;;27.50;;
3278;SDS011;1651;50.940;6.888;2023-04-29T04:09:45;63.90;;;26.83;;
3278;SDS011;1651;50.940;6.888;2023-04-29T04:12:11;61.53;;;23.90;;
3278;SDS011;1651;50.940;6.888;2023-04-29T04:14:37;63.55;;;27.55;;
3278;SDS011;1651;50.940;6.888;2023-04-29T04:17:03;52.07;;;22.30;;
3278;SDS011;1651;50.940;6.888;2023-04-29T04:19:29;56.95;;;26.35;;
3278;SDS011;1651;50.940;6.888;2023-04-29T04:21:56;58.35;;;25.70;;
3278;SDS011;1651;50.940;6.888;2023-04-29T04:24:22;58.67;;;24.90;;
3278;SDS011;1651;50.940;6.888;2023-04-29T04:26:48;61.30;;;28.17;;
3278;SDS011;1651;50.940;6.888;2023-04-29T04:29:14;54.20;;;26.13;;
3278;SDS011;1651;50.940;6.888;2023-04-29T04:31:40;60.13;;;26.53;;
3278;SDS011;1651;50.940;6.888;2023-04-29T04:34:07;57.92;;;27.23;;
3278;SDS011;1651;50.940;6.888;2023-04-29T04:36:33;54.57;;;25.13;;
3278;SDS011;1651;50.940;6.888;2023-04-29T04:38:59;60.35;;;25.08;;
3278;SDS011;1651;50.940;6.888;2023-04-29T04:41:25;62.27;;;26.80;;
3278;SDS011;1651;50.940;6.888;2023-04-29T04:43:51;58.37;;;27.10;;
3278;SDS011;1651;50.940;6.888;2023-04-29T04:46:17;60.63;;;28.57;;
3278;SDS011;1651;50.940;6.888;2023-04-29T04:48:43;58.17;;;27.60;;
3278;SDS011;1651;50.940;6.888;2023-04-29T04:51:10;56.33;;;26.95;;
3278;SDS011;1651;50.940;6.888;2023-04-29T04:53:36;53.83;;;28.60;;
3278;SDS011;1651;50.940;6.888;2023-04-29T04:56:02;57.67;;;26.97;;
3278;SDS011;1651;50.940;6.888;2023-04-29T04:58:29;50.73;;;25.00;;
3278;SDS011;1651;50.940;6.888;2023-04-29T05:01:01;57.70;;;29.50;;
3278;SDS011;1651;50.940;6.888;2023-04-29T05:03:27;51.73;;;24.63;;
3278;SDS011;1651;50.940;6.888;2023-04-29T05:05:58;52.67;;;24.17;;
3278;SDS011;1651;50.940;6.888;2023-04-29T05:08:28;56.70;;;22.67;;
3278;SDS011;1651;50.940;6.888;2023-04-29T05:10:54;46.83;;;21.42;;
3278;SDS011;1651;50.940;6.888;2023-04-29T05:13:22;48.05;;;21.95;;
3278;SDS011;1651;50.940;6.888;2023-04-29T05:15:49;44.83;;;21.20;;
3278;SDS011;1651;50.940;6.888;2023-04-29T05:18:21;45.07;;;23.10;;
3278;SDS011;1651;50.940;6.888;2023-04-29T05:20:47;40.33;;;19.70;;
3278;SDS011;1651;50.940;6.888;2023-04-29T05:23:13;40.10;;;20.77;;
3278;SDS011;1651;50.940;6.888;2023-04-29T05:25:39;39.50;;;20.50;;
3278;SDS011;1651;50.940;6.888;2023-04-29T05:28:06;38.73;;;20.57;;
3278;SDS011;1651;50.940;6.888;2023-04-29T05:30:32;40.17;;;20.67;;
3278;SDS011;1651;50.940;6.888;2023-04-29T05:32:58;36.97;;;18.87;;
3278;SDS011;1651;50.940;6.888;2023-04-29T05:35:24;38.23;;;19.60;;
3278;SDS011;1651;50.940;6.888;2023-04-29T05:37:50;40.90;;;21.77;;
3278;SDS011;1651;50.940;6.888;2023-04-29T05:40:16;40.60;;;19.50;;
3278;SDS011;1651;50.940;6.888;2023-04-29T05:42:42;38.63;;;18.90;;
3278;SDS011;1651;50.940;6.888;2023-04-29T05:45:08;38.83;;;18.17;;
3278;SDS011;1651;50.940;6.888;2023-04-29T05:47:39;31.40;;;17.37;;
3278;SDS011;1651;50.940;6.888;2023-04-29T05:50:09;33.40;;;17.27;;
3278;SDS011;1651;50.940;6.888;2023-04-29T05:52:35;33.60;;;18.00;;
3278;SDS011;1651;50.940;6.888;2023-04-29T05:55:01;28.30;;;16.90;;
3278;SDS011;1651;50.940;6.888;2023-04-29T05:57:27;32.17;;;17.10;;
3278;SDS011;1651;50.940;6.888;2023-04-29T05:59:55;23.07;;;13.73;;
3278;SDS011;1651;50.940;6.888;2023-04-29T06:02:23;26.13;;;15.20;;
3278;SDS011;1651;50.940;6.888;2023-04-29T06:04:50;24.60;;;14.33;;
3278;SDS011;1651;50.940;6.888;2023-04-29T06:07:16;31.13;;;15.07;;
3278;SDS011;1651;50.940;6.888;2023-04-29T06:09:43;25.63;;;14.03;;
3278;SDS011;1651;50.940;6.888;2023-04-29T06:12:13;23.23;;;13.00;;
3278;SDS011;1651;50.940;6.888;2023-04-29T06:14:41;21.90;;;13.57;;
3278;SDS011;1651;50.940;6.888;2023-04-29T06:17:07;23.50;;;13.87;;
3278;SDS011;1651;50.940;6.888;2023-04-29T06:19:33;23.33;;;13.40;;
3278;SDS011;1651;50.940;6.888;2023-04-29T06:22:00;24.97;;;13.70;;
3278;SDS011;1651;50.940;6.888;2023-04-29T06:24:25;23.87;;;14.77;;
3278;SDS011;1651;50.940;6.888;2023-04-29T06:26:51;23.50;;;14.63;;
3278;SDS011;1651;50.940;6.888;2023-04-29T06:29:18;27.30;;;15.23;;
3278;SDS011;1651;50.940;6.888;2023-04-29T06:31:43;24.10;;;13.93;;
3278;SDS011;1651;50.940;6.888;2023-04-29T06:34:10;26.77;;;14.63;;
3278;SDS011;1651;50.940;6.888;2023-04-29T06:36:37;21.87;;;13.73;;
3278;SDS011;1651;50.940;6.888;2023-04-29T06:39:03;21.77;;;14.13;;
3278;SDS011;1651;50.940;6.888;2023-04-29T06:41:29;27.07;;;15.47;;
3278;SDS011;1651;50.940;6.888;2023-04-29T06:43:55;25.20;;;14.53;;
3278;SDS011;1651;50.940;6.888;2023-04-29T06:46:22;22.47;;;13.20;;
3278;SDS011;1651;50.940;6.888;2023-04-29T06:48:47;24.10;;;15.20;;
3278;SDS011;1651;50.940;6.888;2023-04-29T06:51:13;24.27;;;15.20;;
3278;SDS011;1651;50.940;6.888;2023-04-29T06:53:41;22.20;;;14.13;;
3278;SDS011;1651;50.940;6.888;2023-04-29T06:56:08;21.77;;;14.27;;
3278;SDS011;1651;50.940;6.888;2023-04-29T06:58:34;22.57;;;14.73;;
3278;SDS011;1651;50.940;6.888;2023-04-29T07:01:00;22.17;;;14.30;;
3278;SDS011;1651;50.940;6.888;2023-04-29T07:03:29;23.77;;;13.70;;
3278;SDS011;1651;50.940;6.888;2023-04-29T07:05:55;20.50;;;13.33;;
3278;SDS011;1651;50.940;6.888;2023-04-29T07:08:21;24.93;;;14.07;;
3278;SDS011;1651;50.940;6.888;2023-04-29T07:10:56;21.30;;;13.30;;
3278;SDS011;1651;50.940;6.888;2023-04-29T07:13:23;21.47;;;15.13;;
3278;SDS011;1651;50.940;6.888;2023-04-29T07:15:50;23.67;;;13.60;;
3278;SDS011;1651;50.940;6.888;2023-04-29T07:18:16;17.97;;;12.63;;
3278;SDS011;1651;50.940;6.888;2023-04-29T07:20:42;24.37;;;12.60;;
3278;SDS011;1651;50.940;6.888;2023-04-29T07:23:08;27.50;;;14.07;;
3278;SDS011;1651;50.940;6.888;2023-04-29T07:25:34;20.37;;;12.83;;
3278;SDS011;1651;50.940;6.888;2023-04-29T07:28:01;19.67;;;13.53;;
3278;SDS011;1651;50.940;6.888;2023-04-29T07:30:28;18.13;;;12.43;;
3278;SDS011;1651;50.940;6.888;2023-04-29T07:32:54;22.90;;;13.20;;
3278;SDS011;1651;50.940;6.888;2023-04-29T07:35:20;18.83;;;12.47;;
3278;SDS011;1651;50.940;6.888;2023-04-29T07:37:48;17.93;;;12.00;;
3278;SDS011;1651;50.940;6.888;2023-04-29T07:40:14;19.63;;;14.20;;
3278;SDS011;1651;50.940;6.888;2023-04-29T07:42:41;20.07;;;13.20;;
3278;SDS011;1651;50.940;6.888;2023-04-29T07:45:07;16.17;;;11.33;;
3278;SDS011;1651;50.940;6.888;2023-04-29T07:47:33;19.90;;;12.33;;
3278;SDS011;1651;50.940;6.888;2023-04-29T07:49:59;19.00;;;13.30;;
3278;SDS011;1651;50.940;6.888;2023-04-29T07:52:26;21.40;;;13.70;;
3278;SDS011;1651;50.940;6.888;2023-04-29T07:54:52;16.30;;;12.57;;
3278;SDS011;1651;50.940;6.888;2023-04-29T07:57:21;15.93;;;10.73;;
3278;SDS011;1651;50.940;6.888;2023-04-29T08:00:04;16.33;;;10.53;;
3278;SDS011;1651;50.940;6.888;2023-04-29T08:02:30;13.93;;;10.20;;
3278;SDS011;1651;50.940;6.888;2023-04-29T08:04:56;18.87;;;11.50;;
3278;SDS011;1651;50.940;6.888;2023-04-29T08:07:22;15.60;;;11.33;;
3278;SDS011;1651;50.940;6.888;2023-04-29T08:09:48;14.67;;;10.73;;
3278;SDS011;1651;50.940;6.888;2023-04-29T08:12:14;12.97;;;9.83;;
3278;SDS011;1651;50.940;6.888;2023-04-29T08:14:41;13.37;;;10.40;;
3278;SDS011;1651;50.940;6.888;2023-04-29T08:17:07;16.33;;;12.17;;
3278;SDS011;1651;50.940;6.888;2023-04-29T08:19:33;14.70;;;10.10;;
3278;SDS011;1651;50.940;6.888;2023-04-29T08:21:59;12.77;;;10.00;;
3278;SDS011;1651;50.940;6.888;2023-04-29T08:24:28;15.13;;;10.00;;
3278;SDS011;1651;50.940;6.888;2023-04-29T08:26:54;15.03;;;9.50;;
3278;SDS011;1651;50.940;6.888;2023-04-29T08:29:20;13.43;;;9.60;;
3278;SDS011;1651;50.940;6.888;2023-04-29T08:31:46;14.40;;;10.27;;
3278;SDS011;1651;50.940;6.888;2023-04-29T08:34:12;15.57;;;10.27;;
3278;SDS011;1651;50.940;6.888;2023-04-29T08:36:38;15.43;;;10.63;;
3278;SDS011;1651;50.940;6.888;2023-04-29T08:39:04;14.70;;;10.50;;
3278;SDS011;1651;50.940;6.888;2023-04-29T08:41:33;15.13;;;10.93;;
3278;SDS011;1651;50.940;6.888;2023-04-29T08:43:59;17.73;;;10.90;;
3278;SDS011;1651;50.940;6.888;2023-04-29T08:46:25;16.60;;;11.30;;
3278;SDS011;1651;50.940;6.888;2023-04-29T08:48:51;12.20;;;9.60;;
3278;SDS011;1651;50.940;6.888;2023-04-29T08:51:17;16.10;;;11.03;;
3278;SDS011;1651;50.940;6.888;2023-04-29T08:53:43;14.67;;;10.00;;
3278;SDS011;1651;50.940;6.888;2023-04-29T08:56:15;13.10;;;10.40;;
3278;SDS011;1651;50.940;6.888;2023-04-29T08:58:44;19.93;;;11.17;;
3278;SDS011;1651;50.940;6.888;2023-04-29T09:01:10;15.27;;;9.40;;
3278;SDS011;1651;50.940;6.888;2023-04-29T09:03:49;14.10;;;8.80;;
3278;SDS011;1651;50.940;6.888;2023-04-29T09:06:16;14.80;;;9.87;;
3278;SDS011;1651;50.940;6.888;2023-04-29T09:08:42;12.77;;;9.37;;
3278;SDS011;1651;50.940;6.888;2023-04-29T09:11:09;11.73;;;8.57;;
3278;SDS011;1651;50.940;6.888;2023-04-29T09:13:36;14.73;;;9.90;;
3278;SDS011;1651;50.940;6.888;2023-04-29T09:16:02;15.27;;;9.60;;
3278;SDS011;1651;50.940;6.888;2023-04-29T09:18:43;13.37;;;10.37;;
3278;SDS011;1651;50.940;6.888;2023-04-29T09:21:13;12.70;;;8.83;;
3278;SDS011;1651;50.940;6.888;2023-04-29T09:23:39;15.70;;;10.57;;
3278;SDS011;1651;50.940;6.888;2023-04-29T09:26:05;15.10;;;10.33;;
3278;SDS011;1651;50.940;6.888;2023-04-29T09:28:31;14.00;;;10.00;;
3278;SDS011;1651;50.940;6.888;2023-04-29T09:30:58;12.20;;;9.60;;
3278;SDS011;1651;50.940;6.888;2023-04-29T09:33:24;13.63;;;9.40;;
3278;SDS011;1651;50.940;6.888;2023-04-29T09:35:52;12.57;;;8.80;;
3278;SDS011;1651;50.940;6.888;2023-04-29T09:38:18;12.77;;;10.27;;
3278;SDS011;1651;50.940;6.888;2023-04-29T09:40:45;13.70;;;10.10;;
3278;SDS011;1651;50.940;6.888;2023-04-29T09:43:12;15.93;;;9.97;;
3278;SDS011;1651;50.940;6.888;2023-04-29T09:45:43;13.17;;;9.30;;
3278;SDS011;1651;50.940;6.888;2023-04-29T09:48:10;12.57;;;9.30;;
3278;SDS011;1651;50.940;6.888;2023-04-29T09:50:37;12.70;;;9.30;;
3278;SDS011;1651;50.940;6.888;2023-04-29T09:53:07;13.50;;;9.53;;
3278;SDS011;1651;50.940;6.888;2023-04-29T09:55:34;11.73;;;10.20;;
3278;SDS011;1651;50.940;6.888;2023-04-29T09:58:01;13.90;;;10.00;;
3278;SDS011;1651;50.940;6.888;2023-04-29T10:03:00;12.00;;;9.50;;
3278;SDS011;1651;50.940;6.888;2023-04-29T10:05:26;12.90;;;9.50;;
3278;SDS011;1651;50.940;6.888;2023-04-29T10:07:53;14.70;;;10.37;;
3278;SDS011;1651;50.940;6.888;2023-04-29T10:10:20;15.17;;;9.33;;
3278;SDS011;1651;50.940;6.888;2023-04-29T10:12:46;16.80;;;11.53;;
3278;SDS011;1651;50.940;6.888;2023-04-29T10:15:19;18.50;;;11.73;;
3278;SDS011;1651;50.940;6.888;2023-04-29T10:18:29;15.27;;;11.93;;
3278;SDS011;1651;50.940;6.888;2023-04-29T10:20:36;19.70;;;11.70;;
3278;SDS011;1651;50.940;6.888;2023-04-29T10:23:06;20.03;;;14.13;;
3278;SDS011;1651;50.940;6.888;2023-04-29T10:25:33;21.87;;;14.23;;
3278;SDS011;1651;50.940;6.888;2023-04-29T10:28:01;17.60;;;12.97;;
3278;SDS011;1651;50.940;6.888;2023-04-29T10:30:28;15.20;;;11.53;;
3278;SDS011;1651;50.940;6.888;2023-04-29T10:32:55;18.23;;;11.43;;
3278;SDS011;1651;50.940;6.888;2023-04-29T10:35:21;16.20;;;11.80;;
3278;SDS011;1651;50.940;6.888;2023-04-29T10:37:49;16.77;;;12.27;;
3278;SDS011;1651;50.940;6.888;2023-04-29T10:40:30;14.33;;;11.40;;
3278;SDS011;1651;50.940;6.888;2023-04-29T10:43:06;16.63;;;12.30;;
3278;SDS011;1651;50.940;6.888;2023-04-29T10:45:32;17.97;;;12.67;;
3278;SDS011;1651;50.940;6.888;2023-04-29T10:53:00;20.97;;;13.43;;
3278;SDS011;1651;50.940;6.888;2023-04-29T10:55:28;22.10;;;13.80;;
3278;SDS011;1651;50.940;6.888;2023-04-29T10:57:57;21.20;;;14.83;;
3278;SDS011;1651;50.940;6.888;2023-04-29T11:00:29;21.20;;;13.83;;
3278;SDS011;1651;50.940;6.888;2023-04-29T11:02:56;21.20;;;15.27;;
3278;SDS011;1651;50.940;6.888;2023-04-29T11:05:29;20.70;;;13.33;;
3278;SDS011;1651;50.940;6.888;2023-04-29T11:10:41;20.23;;;14.00;;
3278;SDS011;1651;50.940;6.888;2023-04-29T11:13:24;21.30;;;14.90;;
3278;SDS011;1651;50.940;6.888;2023-04-29T11:16:02;21.63;;;14.60;;
3278;SDS011;1651;50.940;6.888;2023-04-29T11:18:29;21.80;;;14.60;;
3278;SDS011;1651;50.940;6.888;2023-04-29T11:23:32;22.70;;;15.50;;
3278;SDS011;1651;50.940;6.888;2023-04-29T11:25:59;24.30;;;16.23;;
3278;SDS011;1651;50.940;6.888;2023-04-29T11:28:29;26.13;;;16.17;;
3278;SDS011;1651;50.940;6.888;2023-04-29T11:30:57;22.73;;;15.33;;
3278;SDS011;1651;50.940;6.888;2023-04-29T11:33:24;26.13;;;15.73;;
3278;SDS011;1651;50.940;6.888;2023-04-29T11:35:51;26.30;;;17.67;;
3278;SDS011;1651;50.940;6.888;2023-04-29T11:38:18;25.73;;;16.63;;
3278;SDS011;1651;50.940;6.888;2023-04-29T11:40:48;27.30;;;17.60;;
3278;SDS011;1651;50.940;6.888;2023-04-29T11:43:18;28.03;;;16.77;;
3278;SDS011;1651;50.940;6.888;2023-04-29T11:45:47;45.47;;;28.90;;
3278;SDS011;1651;50.940;6.888;2023-04-29T11:48:22;54.83;;;32.57;;
3278;SDS011;1651;50.940;6.888;2023-04-29T11:50:51;66.57;;;36.70;;
3278;SDS011;1651;50.940;6.888;2023-04-29T11:53:22;69.30;;;39.90;;
3278;SDS011;1651;50.940;6.888;2023-04-29T11:55:49;59.50;;;35.00;;
3278;SDS011;1651;50.940;6.888;2023-04-29T11:58:15;67.93;;;38.00;;
3278;SDS011;1651;50.940;6.888;2023-04-29T12:00:42;62.53;;;36.60;;
3278;SDS011;1651;50.940;6.888;2023-04-29T12:03:12;61.53;;;37.47;;
3278;SDS011;1651;50.940;6.888;2023-04-29T12:05:39;57.77;;;36.67;;
3278;SDS011;1651;50.940;6.888;2023-04-29T12:08:08;57.33;;;34.70;;
3278;SDS011;1651;50.940;6.888;2023-04-29T12:10:35;65.33;;;38.13;;
3278;SDS011;1651;50.940;6.888;2023-04-29T12:13:01;74.00;;;41.17;;
3278;SDS011;1651;50.940;6.888;2023-04-29T12:15:28;77.10;;;40.37;;
3278;SDS011;1651;50.940;6.888;2023-04-29T12:17:55;65.60;;;39.87;;
3278;SDS011;1651;50.940;6.888;2023-04-29T12:20:22;78.97;;;42.07;;
3278;SDS011;1651;50.940;6.888;2023-04-29T12:22:48;69.17;;;39.90;;
3278;SDS011;1651;50.940;6.888;2023-04-29T12:25:14;72.87;;;42.60;;
3278;SDS011;1651;50.940;6.888;2023-04-29T12:27:42;84.07;;;41.23;;
3278;SDS011;1651;50.940;6.888;2023-04-29T12:30:08;66.53;;;40.30;;
3278;SDS011;1651;50.940;6.888;2023-04-29T12:32:35;67.27;;;40.77;;
3278;SDS011;1651;50.940;6.888;2023-04-29T12:35:04;72.30;;;41.80;;
3278;SDS011;1651;50.940;6.888;2023-04-29T12:37:32;68.63;;;40.60;;
3278;SDS011;1651;50.940;6.888;2023-04-29T12:39:59;64.97;;;37.93;;
3278;SDS011;1651;50.940;6.888;2023-04-29T12:42:30;64.63;;;38.17;;
3278;SDS011;1651;50.940;6.888;2023-04-29T12:44:58;57.90;;;35.87;;
3278;SDS011;1651;50.940;6.888;2023-04-29T12:47:24;54.77;;;34.40;;
3278;SDS011;1651;50.940;6.888;2023-04-29T12:49:57;52.87;;;34.17;;
3278;SDS011;1651;50.940;6.888;2023-04-29T12:52:23;51.00;;;32.97;;
3278;SDS011;1651;50.940;6.888;2023-04-29T12:54:50;57.70;;;31.93;;
3278;SDS011;1651;50.940;6.888;2023-04-29T12:57:17;46.30;;;32.07;;
3278;SDS011;1651;50.940;6.888;2023-04-29T12:59:43;44.97;;;29.60;;
3278;SDS011;1651;50.940;6.888;2023-04-29T13:02:10;40.87;;;29.87;;
3278;SDS011;1651;50.940;6.888;2023-04-29T13:04:36;41.60;;;29.30;;
3278;SDS011;1651;50.940;6.888;2023-04-29T13:07:02;42.40;;;28.30;;
3278;SDS011;1651;50.940;6.888;2023-04-29T13:09:30;38.43;;;25.53;;
3278;SDS011;1651;50.940;6.888;2023-04-29T13:14:24;27.80;;;20.60;;
3278;SDS011;1651;50.940;6.888;2023-04-29T13:17:02;25.40;;;19.63;;
3278;SDS011;1651;50.940;6.888;2023-04-29T13:19:37;26.70;;;19.70;;
3278;SDS011;1651;50.940;6.888;2023-04-29T13:22:03;25.97;;;18.00;;
3278;SDS011;1651;50.940;6.888;2023-04-29T13:24:30;27.10;;;19.70;;
3278;SDS011;1651;50.940;6.888;2023-04-29T13:26:57;27.23;;;18.80;;
3278;SDS011;1651;50.940;6.888;2023-04-29T13:29:23;22.80;;;17.57;;
3278;SDS011;1651;50.940;6.888;2023-04-29T13:31:49;21.43;;;16.50;;
3278;SDS011;1651;50.940;6.888;2023-04-29T13:34:14;26.13;;;18.37;;
3278;SDS011;1651;50.940;6.888;2023-04-29T13:36:41;21.07;;;16.57;;
3278;SDS011;1651;50.940;6.888;2023-04-29T13:39:07;22.67;;;16.40;;
3278;SDS011;1651;50.940;6.888;2023-04-29T13:41:33;21.63;;;16.40;;
3278;SDS011;1651;50.940;6.888;2023-04-29T13:43:59;21.90;;;16.43;;
3278;SDS011;1651;50.940;6.888;2023-04-29T13:46:24;26.07;;;17.93;;
3278;SDS011;1651;50.940;6.888;2023-04-29T13:48:51;23.77;;;17.17;;
3278;SDS011;1651;50.940;6.888;2023-04-29T13:51:17;24.07;;;18.30;;
3278;SDS011;1651;50.940;6.888;2023-04-29T13:53:43;23.27;;;16.77;;
3278;SDS011;1651;50.940;6.888;2023-04-29T13:56:10;19.73;;;15.03;;
3278;SDS011;1651;50.940;6.888;2023-04-29T13:58:38;19.90;;;14.60;;
3278;SDS011;1651;50.940;6.888;2023-04-29T14:01:05;20.30;;;16.47;;
3278;SDS011;1651;50.940;6.888;2023-04-29T14:03:35;26.03;;;16.80;;
3278;SDS011;1651;50.940;6.888;2023-04-29T14:06:01;21.73;;;17.03;;
3278;SDS011;1651;50.940;6.888;2023-04-29T14:08:27;22.60;;;17.50;;
3278;SDS011;1651;50.940;6.888;2023-04-29T14:10:53;22.40;;;15.73;;
3278;SDS011;1651;50.940;6.888;2023-04-29T14:13:19;20.60;;;14.90;;
3278;SDS011;1651;50.940;6.888;2023-04-29T14:15:49;21.13;;;15.83;;
3278;SDS011;1651;50.940;6.888;2023-04-29T14:18:19;20.70;;;16.40;;
3278;SDS011;1651;50.940;6.888;2023-04-29T14:20:45;21.90;;;16.47;;
3278;SDS011;1651;50.940;6.888;2023-04-29T14:23:14;20.17;;;14.80;;
3278;SDS011;1651;50.940;6.888;2023-04-29T14:25:40;20.37;;;15.60;;
3278;SDS011;1651;50.940;6.888;2023-04-29T14:28:06;20.37;;;14.73;;
3278;SDS011;1651;50.940;6.888;2023-04-29T14:30:32;21.70;;;15.70;;
3278;SDS011;1651;50.940;6.888;2023-04-29T14:32:59;21.10;;;15.20;;
3278;SDS011;1651;50.940;6.888;2023-04-29T14:35:25;18.90;;;15.80;;
3278;SDS011;1651;50.940;6.888;2023-04-29T14:37:51;22.27;;;15.80;;
3278;SDS011;1651;50.940;6.888;2023-04-29T14:40:17;22.03;;;15.60;;
3278;SDS011;1651;50.940;6.888;2023-04-29T14:42:43;21.47;;;16.47;;
3278;SDS011;1651;50.940;6.888;2023-04-29T14:45:09;22.87;;;16.30;;
3278;SDS011;1651;50.940;6.888;2023-04-29T14:47:36;19.60;;;15.90;;
3278;SDS011;1651;50.940;6.888;2023-04-29T14:50:02;18.67;;;15.97;;
3278;SDS011;1651;50.940;6.888;2023-04-29T14:52:28;19.90;;;16.23;;
3278;SDS011;1651;50.940;6.888;2023-04-29T14:54:54;25.57;;;17.90;;
3278;SDS011;1651;50.940;6.888;2023-04-29T14:57:20;22.10;;;17.30;;
3278;SDS011;1651;50.940;6.888;2023-04-29T14:59:47;21.77;;;17.57;;
3278;SDS011;1651;50.940;6.888;2023-04-29T15:02:14;24.50;;;16.83;;
3278;SDS011;1651;50.940;6.888;2023-04-29T15:04:40;25.50;;;19.10;;
3278;SDS011;1651;50.940;6.888;2023-04-29T15:07:09;26.47;;;18.83;;
3278;SDS011;1651;50.940;6.888;2023-04-29T15:09:35;29.13;;;19.80;;
3278;SDS011;1651;50.940;6.888;2023-04-29T15:12:01;24.87;;;20.30;;
3278;SDS011;1651;50.940;6.888;2023-04-29T15:14:28;26.83;;;21.00;;
3278;SDS011;1651;50.940;6.888;2023-04-29T15:16:54;25.57;;;20.00;;
3278;SDS011;1651;50.940;6.888;2023-04-29T15:19:20;25.93;;;19.87;;
3278;SDS011;1651;50.940;6.888;2023-04-29T15:21:50;26.30;;;20.40;;
3278;SDS011;1651;50.940;6.888;2023-04-29T15:24:18;23.43;;;18.73;;
3278;SDS011;1651;50.940;6.888;2023-04-29T15:26:44;27.07;;;20.30;;
3278;SDS011;1651;50.940;6.888;2023-04-29T15:29:10;25.20;;;19.67;;